Time;durP1;ratioP1;P1;durP2;ratioP2;P2;SDS_P1;SDS_P2;PMS_P1;PMS_P2;Temp;Humidity;BMP_temperature;BMP_pressure;BME280_temperature;BME280_humidity;BME280_pressure;Samples;Min_cycle;Max_cycle;Signal;HPM_P1;HPM_P2
2021/09/21 00:01:33;;;;;;;5.12;2.47;;;;;;;29.08;36.33;101279.88;144992;702;6002;-78
2021/09/21 00:04:00;;;;;;;7.03;2.87;;;;;;;29.11;36.33;101281.53;144992;594;6002;-78
2021/09/21 00:06:26;;;;;;;5.10;2.00;;;;;;;29.12;36.12;101278.78;144992;565;6002;-77
2021/09/21 00:08:52;;;;;;;5.62;2.40;;;;;;;29.09;35.61;101284.25;144992;613;6002;-78
2021/09/21 00:11:20;;;;;;;3.67;2.35;;;;;;;29.06;36.39;101280.84;144992;636;6002;-78
2021/09/21 00:13:47;;;;;;;5.37;1.98;;;;;;;29.08;36.52;101279.88;144992;616;6002;-78
2021/09/21 00:16:14;;;;;;;3.58;2.10;;;;;;;29.08;36.61;101278.97;144992;571;6002;-78
2021/09/21 00:18:40;;;;;;;3.72;2.30;;;;;;;29.01;36.16;101285.50;144992;657;6002;-79
2021/09/21 00:21:07;;;;;;;4.93;2.40;;;;;;;28.94;36.28;101291.06;144992;609;6002;-77
2021/09/21 00:23:33;;;;;;;5.55;2.25;;;;;;;28.87;36.23;101296.69;144992;606;6002;-78
2021/09/21 00:26:00;;;;;;;3.20;2.10;;;;;;;28.84;36.58;101304.84;144992;564;6002;-77
2021/09/21 00:28:26;;;;;;;3.15;1.92;;;;;;;28.83;36.65;101297.75;144992;586;6002;-78
2021/09/21 00:30:53;;;;;;;4.90;2.25;;;;;;;28.85;36.47;101299.44;144992;569;6002;-78
2021/09/21 00:33:23;;;;;;;3.00;2.05;;;;;;;28.88;36.62;101301.13;144992;574;6002;-76
2021/09/21 00:35:53;;;;;;;5.40;2.12;;;;;;;28.87;36.52;101305.63;144992;601;6002;-79
2021/09/21 00:38:22;;;;;;;8.40;2.60;;;;;;;28.88;36.62;101310.00;144992;565;6002;-79
2021/09/21 00:40:49;;;;;;;4.70;2.12;;;;;;;28.90;36.60;101300.12;144992;572;6002;-78
2021/09/21 00:43:22;;;;;;;5.50;2.33;;;;;;;28.92;36.65;101298.28;144992;565;6002;-78
2021/09/21 00:45:49;;;;;;;5.50;2.53;;;;;;;28.92;36.50;101300.97;144992;574;6010;-78
2021/09/21 00:48:16;;;;;;;4.97;2.60;;;;;;;28.94;36.61;101300.91;144992;587;6002;-77
2021/09/21 00:50:54;;;;;;;5.60;2.47;;;;;;;28.95;36.62;101297.28;144992;598;6002;-77
2021/09/21 00:53:33;;;;;;;4.28;2.37;;;;;;;29.01;36.59;101289.03;144992;578;6002;-77
2021/09/21 00:56:00;;;;;;;3.67;2.42;;;;;;;29.10;36.35;101291.34;144992;600;6002;-79
2021/09/21 00:58:26;;;;;;;8.82;2.58;;;;;;;29.13;36.42;101283.22;144992;583;6002;-78
2021/09/21 01:00:53;;;;;;;7.72;2.80;;;;;;;29.14;36.51;101284.06;144992;598;6002;-76
2021/09/21 01:03:19;;;;;;;6.22;2.65;;;;;;;29.12;36.56;101285.94;144992;576;6002;-78
2021/09/21 01:05:46;;;;;;;4.50;2.53;;;;;;;29.08;36.50;101284.31;144992;587;6002;-77
2021/09/21 01:08:12;;;;;;;5.95;2.60;;;;;;;29.03;36.31;101283.63;144992;570;6002;-78
2021/09/21 01:10:39;;;;;;;6.10;2.80;;;;;;;28.98;36.50;101277.59;144992;598;6002;-77
2021/09/21 01:13:06;;;;;;;4.75;3.15;;;;;;;28.98;36.44;101277.59;144992;587;6002;-79
2021/09/21 01:15:32;;;;;;;10.02;3.30;;;;;;;28.97;36.58;101273.16;144992;597;6002;-78
2021/09/21 01:17:59;;;;;;;6.62;3.10;;;;;;;28.91;36.67;101277.81;144992;695;6002;-78
2021/09/21 01:20:26;;;;;;;5.10;2.85;;;;;;;28.87;36.87;101270.87;144992;569;6002;-78
2021/09/21 01:22:53;;;;;;;4.80;2.80;;;;;;;28.83;36.63;101274.59;144992;574;6002;-78
2021/09/21 01:25:20;;;;;;;4.68;2.67;;;;;;;28.82;36.78;101278.16;144992;577;6002;-77
2021/09/21 01:27:46;;;;;;;5.62;2.58;;;;;;;28.82;36.57;101275.50;144992;576;6002;-77
2021/09/21 01:30:14;;;;;;;6.28;2.65;;;;;;;28.80;36.86;101277.37;144992;586;6002;-78
2021/09/21 01:32:41;;;;;;;4.45;2.60;;;;;;;28.80;36.81;101268.50;144992;590;6002;-78
2021/09/21 01:35:09;;;;;;;5.85;2.60;;;;;;;28.80;36.92;101273.84;144993;581;6002;-79
2021/09/21 01:37:39;;;;;;;4.55;2.42;;;;;;;28.80;37.01;101263.16;144993;650;6002;-79
2021/09/21 01:40:07;;;;;;;3.97;2.30;;;;;;;28.78;36.78;101271.22;144993;639;6002;-77
2021/09/21 01:42:33;;;;;;;4.47;2.30;;;;;;;28.77;36.89;101264.97;144993;563;6002;-78
2021/09/21 01:45:00;;;;;;;4.82;2.40;;;;;;;28.77;36.82;101269.47;144993;573;6002;-79
2021/09/21 01:47:26;;;;;;;3.87;2.30;;;;;;;28.76;36.87;101270.38;144992;591;6002;-76
2021/09/21 01:50:11;;;;;;;4.10;2.10;;;;;;;28.76;36.39;101268.59;144993;593;6002;-76
2021/09/21 01:52:44;;;;;;;4.07;2.25;;;;;;;28.76;36.66;101273.06;144993;595;6002;-78
2021/09/21 01:58:18;;;;;;;5.60;2.20;;;;;;;28.74;36.74;101265.09;144993;631;6002;-77
2021/09/21 02:00:44;;;;;;;4.97;2.33;;;;;;;28.69;36.80;101272.41;144993;589;6000;-78
2021/09/21 02:03:10;;;;;;;4.75;2.28;;;;;;;28.65;37.00;101270.81;144993;571;6002;-78
2021/09/21 02:05:38;;;;;;;5.05;2.30;;;;;;;28.62;36.90;101272.69;144992;625;6002;-78
2021/09/21 02:08:05;;;;;;;5.55;2.12;;;;;;;28.61;36.71;101262.97;144992;644;6002;-78
2021/09/21 02:10:31;;;;;;;5.53;2.10;;;;;;;28.60;37.00;101254.06;144992;724;6002;-75
2021/09/21 02:12:58;;;;;;;4.62;2.30;;;;;;;28.59;37.11;101250.53;144992;660;6002;-78
2021/09/21 02:15:24;;;;;;;5.87;2.33;;;;;;;28.59;37.01;101258.53;144992;757;6002;-77
2021/09/21 02:17:51;;;;;;;4.20;2.40;;;;;;;28.60;36.91;101270.09;144992;695;6002;-78
2021/09/21 02:20:17;;;;;;;4.65;2.25;;;;;;;28.59;36.90;101268.38;144993;578;6002;-77
2021/09/21 02:22:44;;;;;;;4.65;2.42;;;;;;;28.59;36.96;101263.03;144993;572;6002;-77
2021/09/21 02:25:10;;;;;;;5.07;2.35;;;;;;;28.57;36.97;101255.06;144992;639;6002;-76
2021/09/21 02:27:37;;;;;;;6.25;2.35;;;;;;;28.57;37.04;101257.75;144993;751;6002;-76
2021/09/21 02:30:04;;;;;;;6.10;2.35;;;;;;;28.57;37.23;101264.81;144993;594;6002;-78
2021/09/21 02:32:30;;;;;;;6.22;2.30;;;;;;;28.57;37.19;101260.41;144993;697;6002;-79
2021/09/21 02:34:57;;;;;;;9.30;2.78;;;;;;;28.56;37.28;101274.66;144993;578;6002;-79
2021/09/21 02:37:23;;;;;;;7.03;3.05;;;;;;;28.57;37.13;101283.53;144993;581;6002;-78
2021/09/21 02:39:50;;;;;;;6.03;2.62;;;;;;;28.56;36.96;101287.13;144993;570;6002;-79
2021/09/21 02:42:16;;;;;;;5.70;2.37;;;;;;;28.55;37.28;101291.59;144993;611;6002;-76
2021/09/21 02:44:42;;;;;;;5.15;2.55;;;;;;;28.53;37.10;101295.25;144993;576;6002;-77
2021/09/21 02:47:09;;;;;;;5.75;2.12;;;;;;;28.53;37.20;101297.94;144993;579;6002;-77
2021/09/21 02:49:35;;;;;;;7.55;2.50;;;;;;;28.51;37.29;101295.31;144993;582;6002;-78
2021/09/21 02:52:02;;;;;;;5.05;2.30;;;;;;;28.50;36.89;101296.22;144993;596;6002;-77
2021/09/21 02:54:28;;;;;;;8.80;2.90;;;;;;;28.50;36.99;101298.91;144993;597;6002;-78
2021/09/21 02:56:55;;;;;;;5.10;2.40;;;;;;;28.48;36.96;101300.75;144993;673;6002;-78
2021/09/21 02:59:21;;;;;;;9.00;2.70;;;;;;;28.48;37.04;101299.91;144993;603;6002;-77
2021/09/21 03:01:49;;;;;;;5.35;2.80;;;;;;;28.46;37.18;101291.06;144993;727;6002;-77
2021/09/21 03:04:22;;;;;;;5.53;2.30;;;;;;;28.42;36.88;101282.28;144993;607;6002;-77
2021/09/21 03:06:51;;;;;;;7.22;2.40;;;;;;;28.39;36.97;101287.75;144993;572;6002;-77
2021/09/21 03:09:36;;;;;;;4.78;2.17;;;;;;;28.37;37.11;101297.59;144993;717;6002;-77
2021/09/21 03:17:42;;;;;;;8.25;2.95;;;;;;;28.30;37.17;101291.63;144994;596;5002;-78
2021/09/21 03:20:09;;;;;;;3.47;2.25;;;;;;;28.28;37.22;101297.94;144993;644;5002;-79
2021/09/21 03:22:35;;;;;;;6.18;2.35;;;;;;;28.28;37.25;101295.25;144994;660;5002;-77
2021/09/21 03:25:02;;;;;;;7.85;2.50;;;;;;;28.25;37.41;101293.56;144994;585;5002;-77
2021/09/21 03:27:29;;;;;;;4.50;2.35;;;;;;;28.24;37.50;101297.16;144994;660;5002;-78
2021/09/21 03:29:55;;;;;;;7.43;2.28;;;;;;;28.23;37.24;101298.09;144994;591;5002;-77
2021/09/21 03:32:25;;;;;;;6.50;2.08;;;;;;;28.22;37.48;101305.22;144994;725;5002;-77
2021/09/21 03:34:52;;;;;;;3.90;2.42;;;;;;;28.23;37.42;101303.44;144994;580;5002;-78
2021/09/21 03:37:18;;;;;;;4.68;2.17;;;;;;;28.23;37.57;101300.75;144994;564;5002;-78
2021/09/21 03:39:45;;;;;;;4.75;2.55;;;;;;;28.23;37.54;101290.94;144994;599;5002;-78
2021/09/21 03:42:12;;;;;;;9.00;2.37;;;;;;;28.21;37.27;101299.94;144994;615;5002;-78
2021/09/21 03:44:39;;;;;;;4.87;2.05;;;;;;;28.18;37.21;101308.91;144994;576;5002;-77
2021/09/21 03:47:05;;;;;;;6.30;2.10;;;;;;;28.18;37.34;101297.38;144994;597;5002;-77
2021/09/21 03:49:32;;;;;;;5.20;2.33;;;;;;;28.17;37.35;101303.63;144994;569;5002;-79
2021/09/21 03:51:58;;;;;;;4.78;2.65;;;;;;;28.14;37.77;101306.41;144994;578;5002;-79
2021/09/21 03:54:25;;;;;;;5.15;2.62;;;;;;;28.11;37.30;101312.75;144994;681;5002;-78
2021/09/21 03:56:51;;;;;;;7.25;2.55;;;;;;;28.03;37.51;101307.66;144994;572;5002;-79
2021/09/21 03:59:18;;;;;;;5.75;2.53;;;;;;;27.97;37.79;101307.00;144994;588;5002;-79
2021/09/21 04:01:44;;;;;;;6.03;2.50;;;;;;;27.92;38.14;101317.78;144994;623;5002;-78
2021/09/21 04:04:11;;;;;;;6.05;2.37;;;;;;;27.85;37.57;101311.78;144994;624;5002;-76
2021/09/21 04:06:37;;;;;;;4.80;2.25;;;;;;;27.81;38.06;101310.12;144994;721;5002;-76
2021/09/21 04:09:04;;;;;;;8.82;2.97;;;;;;;27.79;38.02;101317.34;144994;571;5002;-79
2021/09/21 04:11:30;;;;;;;6.82;2.70;;;;;;;27.77;37.94;101339.63;144994;593;5002;-76
2021/09/21 04:13:56;;;;;;;6.80;2.65;;;;;;;27.76;38.08;101344.09;144993;570;5002;-78
2021/09/21 04:16:23;;;;;;;9.25;2.92;;;;;;;27.75;38.35;101345.00;144994;581;5002;-79
2021/09/21 04:18:49;;;;;;;8.70;3.00;;;;;;;27.75;37.96;101346.81;144994;647;5002;-79
2021/09/21 04:21:16;;;;;;;9.30;3.28;;;;;;;27.76;37.87;101349.44;144994;704;5002;-78
2021/09/21 04:23:42;;;;;;;11.20;3.00;;;;;;;27.78;37.97;101352.91;144994;594;5002;-79
2021/09/21 04:26:09;;;;;;;11.50;3.10;;;;;;;27.80;38.66;101359.06;144994;566;5002;-82
2021/09/21 04:28:37;;;;;;;9.43;2.90;;;;;;;27.82;38.18;101359.91;144994;565;5002;-79
2021/09/21 04:31:09;;;;;;;8.02;2.67;;;;;;;27.84;37.93;101355.37;144994;581;5002;-80
2021/09/21 04:33:36;;;;;;;5.37;2.67;;;;;;;27.88;38.28;101354.34;144994;586;5002;-78
2021/09/21 04:36:08;;;;;;;9.38;2.83;;;;;;;27.92;37.99;101364.91;144994;597;5002;-80
2021/09/21 04:38:35;;;;;;;7.32;2.30;;;;;;;27.97;38.39;101363.03;144994;599;5008;-77
2021/09/21 04:41:03;;;;;;;7.75;2.62;;;;;;;28.01;38.12;101362.87;144994;571;5002;-77
2021/09/21 04:43:31;;;;;;;7.55;2.17;;;;;;;28.06;38.16;101362.69;144994;597;5002;-76
2021/09/21 04:45:58;;;;;;;8.70;2.80;;;;;;;28.08;38.42;101363.53;144994;712;5002;-77
2021/09/21 04:48:24;;;;;;;9.77;2.92;;;;;;;28.09;38.29;101356.41;144994;597;5002;-79
2021/09/21 04:50:51;;;;;;;7.22;2.55;;;;;;;28.12;38.32;101362.50;144994;617;5002;-78
2021/09/21 04:53:18;;;;;;;11.32;2.40;;;;;;;28.15;38.29;101367.75;144994;573;5002;-78
2021/09/21 04:55:44;;;;;;;6.82;2.10;;;;;;;28.18;38.57;101356.09;144994;582;5002;-78
2021/09/21 04:58:11;;;;;;;9.63;2.53;;;;;;;28.20;38.42;101360.44;144994;613;5002;-77
2021/09/21 05:00:37;;;;;;;5.00;1.90;;;;;;;28.23;38.05;101364.81;144994;585;5002;-77
2021/09/21 05:03:04;;;;;;;8.05;2.20;;;;;;;28.26;38.11;101359.37;144994;765;5002;-75
2021/09/21 05:05:30;;;;;;;6.65;1.83;;;;;;;28.27;38.44;101354.91;144994;572;5002;-79
2021/09/21 05:07:57;;;;;;;4.87;1.98;;;;;;;28.29;38.42;101359.28;144994;578;5002;-79
2021/09/21 05:10:24;;;;;;;6.72;2.20;;;;;;;28.32;38.03;101360.97;144994;604;5002;-78
2021/09/21 05:12:51;;;;;;;5.15;1.95;;;;;;;28.32;38.37;101367.19;144994;615;5002;-78
2021/09/21 05:15:17;;;;;;;3.30;2.00;;;;;;;28.37;37.66;101373.22;144994;594;5002;-79
2021/09/21 05:17:44;;;;;;;4.43;2.20;;;;;;;28.43;37.91;101377.50;144994;571;5002;-79
2021/09/21 05:20:11;;;;;;;4.30;2.20;;;;;;;28.47;37.89;101380.91;144994;591;5002;-77
2021/09/21 05:22:38;;;;;;;3.75;1.92;;;;;;;28.51;37.80;101380.75;144994;573;5002;-77
2021/09/21 05:25:06;;;;;;;6.28;3.20;;;;;;;28.57;37.68;101393.94;144994;619;5002;-78
2021/09/21 05:27:32;;;;;;;12.43;2.20;;;;;;;28.60;37.71;101390.28;144994;565;5003;-79
2021/09/21 05:29:59;;;;;;;4.28;2.00;;;;;;;28.65;37.48;101396.34;144994;606;5002;-77
2021/09/21 05:32:25;;;;;;;5.30;3.30;;;;;;;28.71;37.69;101400.59;144994;651;5002;-78
2021/09/21 05:34:52;;;;;;;8.35;3.30;;;;;;;28.74;37.64;101395.12;144994;583;5003;-78
2021/09/21 05:37:18;;;;;;;5.80;2.80;;;;;;;28.62;37.61;101403.56;144994;588;5002;-78
2021/09/21 05:39:45;;;;;;;6.80;3.03;;;;;;;28.42;37.40;101394.44;144994;609;5002;-78
2021/09/21 05:42:11;;;;;;;10.48;3.00;;;;;;;28.13;38.03;101398.94;144994;570;5002;-78
2021/09/21 05:44:37;;;;;;;10.23;2.50;;;;;;;28.10;38.27;101396.37;144994;570;5002;-79
2021/09/21 05:47:04;;;;;;;9.90;3.20;;;;;;;28.10;38.44;101391.03;144994;624;5002;-79
2021/09/21 05:49:30;;;;;;;6.15;2.70;;;;;;;28.13;38.53;101395.41;144994;575;5002;-79
2021/09/21 05:51:57;;;;;;;6.95;2.80;;;;;;;28.23;38.55;101400.38;144994;607;5002;-78
2021/09/21 05:54:23;;;;;;;5.40;2.20;;;;;;;28.30;38.03;101390.41;144994;632;5002;-80
2021/09/21 05:56:50;;;;;;;4.87;1.98;;;;;;;28.40;38.13;101398.97;144994;668;5002;-78
2021/09/21 05:59:16;;;;;;;5.18;2.10;;;;;;;28.53;38.06;101389.59;144994;625;5002;-78
2021/09/21 06:01:43;;;;;;;5.03;2.15;;;;;;;28.63;37.82;101397.31;144994;563;5002;-79
2021/09/21 06:04:11;;;;;;;7.80;2.25;;;;;;;28.70;37.75;101385.50;144994;738;5002;-77
2021/09/21 06:06:37;;;;;;;4.18;2.10;;;;;;;28.76;37.76;101387.94;144994;572;5002;-75
2021/09/21 06:09:04;;;;;;;8.40;5.70;;;;;;;28.82;37.64;101387.72;144994;580;5002;-78
2021/09/21 06:11:33;;;;;;;7.32;3.90;;;;;;;28.87;37.48;101399.13;144994;577;5002;-78
2021/09/21 06:14:01;;;;;;;8.73;4.95;;;;;;;28.90;37.53;101415.03;144994;583;5002;-78
2021/09/21 06:16:28;;;;;;;9.15;4.40;;;;;;;28.91;37.58;101415.91;144993;558;5002;-77
2021/09/21 06:18:55;;;;;;;6.53;3.87;;;;;;;28.93;37.24;101409.56;144993;568;5002;-77
2021/09/21 06:21:22;;;;;;;7.75;4.03;;;;;;;28.97;37.38;101415.69;144994;619;5002;-77
2021/09/21 06:23:49;;;;;;;8.20;4.22;;;;;;;29.01;37.42;101425.31;144994;587;5002;-78
2021/09/21 06:26:16;;;;;;;9.73;3.87;;;;;;;29.06;37.52;101427.84;144994;575;5002;-78
2021/09/21 06:28:43;;;;;;;8.10;5.15;;;;;;;29.11;37.30;101426.75;144994;569;5002;-77
2021/09/21 06:31:09;;;;;;;10.45;8.70;;;;;;;29.17;37.23;101428.31;144994;564;5002;-77
2021/09/21 06:33:36;;;;;;;13.50;8.20;;;;;;;29.25;37.13;101433.41;144994;631;5002;-79
2021/09/21 06:36:04;;;;;;;9.45;5.80;;;;;;;29.35;37.36;101440.19;144994;738;5002;-78
2021/09/21 06:38:34;;;;;;;9.45;5.95;;;;;;;29.45;37.13;101435.34;144994;574;5002;-75
2021/09/21 06:41:01;;;;;;;7.00;3.40;;;;;;;29.58;36.96;101438.41;144994;581;5002;-75
2021/09/21 06:43:28;;;;;;;9.50;4.53;;;;;;;29.69;36.91;101432.66;144994;609;5002;-76
2021/09/21 06:45:55;;;;;;;5.97;3.42;;;;;;;29.78;36.54;101433.16;144994;607;5002;-75
2021/09/21 06:48:22;;;;;;;8.75;3.83;;;;;;;29.90;36.87;101436.31;144994;725;5002;-79
2021/09/21 06:50:48;;;;;;;7.28;3.10;;;;;;;30.00;36.25;101443.91;144993;564;5002;-79
2021/09/21 06:53:14;;;;;;;8.35;3.80;;;;;;;30.08;36.25;101443.56;144993;671;5002;-78
2021/09/21 06:55:41;;;;;;;5.68;2.40;;;;;;;30.18;36.43;101444.97;144993;575;5002;-77
2021/09/21 06:58:07;;;;;;;5.80;2.42;;;;;;;30.25;35.70;101450.94;144993;630;5002;-78
2021/09/21 07:00:37;;;;;;;6.70;2.67;;;;;;;30.31;35.88;101453.34;144994;672;5002;-79
2021/09/21 07:03:06;;;;;;;7.65;2.50;;;;;;;30.37;36.04;101454.91;144994;571;5002;-80
2021/09/21 07:05:33;;;;;;;4.80;2.50;;;;;;;30.33;36.14;101462.19;144994;565;5002;-81
2021/09/21 07:08:00;;;;;;;4.53;2.45;;;;;;;30.39;36.47;101463.78;144994;593;5002;-77
2021/09/21 07:10:26;;;;;;;8.70;2.95;;;;;;;30.35;36.06;101463.03;144994;592;5002;-82
2021/09/21 07:12:53;;;;;;;7.20;3.25;;;;;;;30.42;35.63;101474.37;144994;564;5002;-80
2021/09/21 07:15:23;;;;;;;9.68;3.67;;;;;;;30.56;35.32;101466.63;144994;604;5002;-80
2021/09/21 07:17:53;;;;;;;9.25;3.50;;;;;;;30.44;34.56;101471.63;144994;588;5002;-82
2021/09/21 07:20:21;;;;;;;5.97;3.45;;;;;;;30.31;35.90;101473.91;144994;617;5002;-80
2021/09/21 07:22:48;;;;;;;8.02;3.40;;;;;;;30.32;36.08;101478.31;144994;589;5002;-82
2021/09/21 07:25:15;;;;;;;6.28;2.62;;;;;;;30.33;35.84;101472.91;144994;571;5002;-80
2021/09/21 07:27:41;;;;;;;8.52;2.78;;;;;;;30.21;35.42;101474.28;144994;570;5002;-81
2021/09/21 07:30:08;;;;;;;9.38;2.83;;;;;;;30.28;37.11;101482.94;144994;650;5002;-80
2021/09/21 07:32:36;;;;;;;7.97;2.70;;;;;;;30.47;36.59;101495.63;144994;615;5002;-75
2021/09/21 07:35:04;;;;;;;7.53;3.70;;;;;;;30.65;36.56;101500.19;144994;564;5002;-76
2021/09/21 07:37:31;;;;;;;10.55;3.58;;;;;;;30.76;36.38;101499.72;144994;609;5002;-77
2021/09/21 07:39:57;;;;;;;8.93;3.08;;;;;;;30.81;35.64;101486.12;144994;587;5002;-80
2021/09/21 07:42:24;;;;;;;7.30;3.30;;;;;;;30.83;36.32;101490.50;144994;598;5002;-84
2021/09/21 07:44:50;;;;;;;5.87;3.08;;;;;;;30.89;35.65;101492.03;144994;578;5002;-83
2021/09/21 07:47:17;;;;;;;6.65;2.83;;;;;;;30.95;35.71;101497.13;144994;591;4567;-79
2021/09/21 07:49:43;;;;;;;6.85;2.62;;;;;;;30.98;35.77;101491.66;144994;653;4572;-81
2021/09/21 07:52:11;;;;;;;6.20;2.72;;;;;;;31.06;36.23;101484.16;144994;590;4573;-81
2021/09/21 07:54:37;;;;;;;6.40;3.05;;;;;;;31.19;36.07;101497.03;144992;587;6002;-81
2021/09/21 07:57:03;;;;;;;6.97;4.60;;;;;;;31.36;35.40;101505.19;144992;570;6002;-80
2021/09/21 07:59:30;;;;;;;5.47;3.40;;;;;;;31.54;35.86;101500.81;144992;566;6002;-79
2021/09/21 08:01:56;;;;;;;13.73;5.62;;;;;;;31.71;35.01;101507.22;144992;600;6002;-80
2021/09/21 08:04:23;;;;;;;6.47;4.47;;;;;;;31.86;35.63;101517.22;144992;579;6002;-80
2021/09/21 08:06:49;;;;;;;7.47;3.30;;;;;;;31.97;35.41;101528.31;144992;583;6002;-81
2021/09/21 08:09:16;;;;;;;6.37;3.95;;;;;;;32.02;35.37;101522.72;144992;615;6002;-82
2021/09/21 08:11:43;;;;;;;7.47;3.92;;;;;;;32.04;34.85;101526.22;144992;675;6002;-81
2021/09/21 08:14:09;;;;;;;7.15;3.97;;;;;;;31.97;35.09;101517.56;144992;570;6002;-85
2021/09/21 08:16:38;;;;;;;7.95;4.18;;;;;;;31.91;34.92;101515.22;144992;575;6002;-80
2021/09/21 08:19:05;;;;;;;8.10;3.72;;;;;;;31.91;34.69;101508.94;144992;580;6002;-83
2021/09/21 08:21:31;;;;;;;5.93;2.85;;;;;;;31.90;35.45;101512.59;144992;606;6002;-84
2021/09/21 08:23:57;;;;;;;5.50;3.00;;;;;;;31.90;34.92;101526.03;144992;655;6002;-81
2021/09/21 08:26:25;;;;;;;5.37;3.42;;;;;;;31.93;35.32;101528.56;144992;631;6002;-81
2021/09/21 08:28:51;;;;;;;9.65;2.83;;;;;;;31.97;35.28;101520.25;144992;581;6002;-80
2021/09/21 08:31:18;;;;;;;4.50;2.65;;;;;;;31.97;35.14;101522.94;144992;582;6002;-81
2021/09/21 08:33:44;;;;;;;6.70;2.72;;;;;;;31.97;35.03;101532.81;144992;623;6003;-84
2021/09/21 08:36:11;;;;;;;3.67;2.30;;;;;;;31.95;34.95;101529.34;144992;632;6002;-81
2021/09/21 08:38:39;;;;;;;6.28;2.65;;;;;;;31.98;35.24;101526.53;144991;563;6002;-82
2021/09/21 08:41:05;;;;;;;6.68;2.15;;;;;;;32.09;35.11;101521.53;144992;594;6002;-82
2021/09/21 08:43:32;;;;;;;4.90;2.17;;;;;;;32.24;34.92;101527.97;144992;686;6002;-83
2021/09/21 08:45:59;;;;;;;4.78;2.15;;;;;;;32.44;35.21;101535.06;144992;719;6002;-82
2021/09/21 08:48:25;;;;;;;4.90;2.10;;;;;;;32.45;35.14;101528.72;144992;570;6002;-83
2021/09/21 08:50:52;;;;;;;3.75;2.00;;;;;;;32.40;34.26;101528.09;144992;680;6002;-84
2021/09/21 08:53:18;;;;;;;3.50;2.30;;;;;;;32.43;34.51;101536.00;144992;563;6002;-82
2021/09/21 08:55:45;;;;;;;3.12;2.20;;;;;;;32.56;34.52;101536.25;144992;603;6002;-82
2021/09/21 08:58:13;;;;;;;4.55;1.90;;;;;;;32.63;33.06;101534.13;144992;667;6002;-82
2021/09/21 09:00:39;;;;;;;2.62;1.92;;;;;;;32.67;34.26;101535.75;144992;660;6002;-82
2021/09/21 09:03:14;;;;;;;5.85;1.90;;;;;;;32.59;31.39;101533.41;144992;573;6002;-83
2021/09/21 09:05:54;;;;;;;4.85;1.80;;;;;;;32.48;34.61;101536.62;144992;564;6002;-83
2021/09/21 09:08:38;;;;;;;5.80;1.87;;;;;;;32.37;34.28;101541.66;144992;569;6002;-82
2021/09/21 09:11:24;;;;;;;5.87;1.87;;;;;;;32.16;34.18;101547.12;144992;564;6002;-86
2021/09/21 09:13:53;;;;;;;3.97;2.00;;;;;;;32.09;34.29;101552.91;144992;566;6002;-83
2021/09/21 09:16:21;;;;;;;3.55;1.50;;;;;;;32.03;33.55;101545.97;144992;563;6002;-81
2021/09/21 09:18:59;;;;;;;3.40;1.80;;;;;;;31.94;31.88;101546.41;144992;588;6002;-83
2021/09/21 09:21:25;;;;;;;3.78;1.62;;;;;;;31.85;34.42;101546.81;144992;585;6002;-84
2021/09/21 09:23:53;;;;;;;4.28;1.77;;;;;;;31.80;32.40;101539.88;144992;693;6002;-82
2021/09/21 09:26:22;;;;;;;5.60;1.80;;;;;;;31.78;34.01;101539.03;144992;670;6002;-82
2021/09/21 09:28:51;;;;;;;4.20;1.70;;;;;;;31.70;32.25;101522.44;144992;581;6002;-82
2021/09/21 09:31:25;;;;;;;3.22;1.70;;;;;;;31.49;32.04;101523.41;144992;573;6002;-81
2021/09/21 09:34:03;;;;;;;4.10;1.70;;;;;;;31.34;32.08;101533.91;144992;569;6002;-82
2021/09/21 09:36:29;;;;;;;2.95;1.60;;;;;;;31.17;31.83;101536.44;144992;566;6002;-82
2021/09/21 09:39:03;;;;;;;5.60;1.80;;;;;;;31.05;32.52;101541.41;144992;608;6002;-82
2021/09/21 09:41:40;;;;;;;4.60;2.10;;;;;;;30.90;34.19;101539.34;144992;572;6002;-82
2021/09/21 09:44:11;;;;;;;6.15;1.90;;;;;;;30.89;34.37;101538.50;144992;566;6002;-82
2021/09/21 09:46:53;;;;;;;4.87;1.92;;;;;;;30.89;33.44;101538.50;144992;704;6002;-81
2021/09/21 09:49:25;;;;;;;8.23;6.47;;;;;;;30.81;33.80;101540.59;144992;705;6002;-82
2021/09/21 09:51:53;;;;;;;8.82;4.80;;;;;;;30.82;34.53;101544.16;144992;600;6002;-82
2021/09/21 09:54:20;;;;;;;8.07;4.47;;;;;;;30.79;34.57;101534.44;144992;600;6002;-82
2021/09/21 09:56:47;;;;;;;5.50;2.55;;;;;;;30.71;33.71;101536.59;144992;611;6002;-82
2021/09/21 09:59:15;;;;;;;3.00;1.85;;;;;;;30.71;34.51;101528.53;144992;564;6002;-84
2021/09/21 10:01:43;;;;;;;3.35;1.80;;;;;;;30.72;34.28;101541.00;144992;574;6002;-82
2021/09/21 10:04:14;;;;;;;4.60;1.70;;;;;;;30.71;33.64;101525.84;144992;717;6002;-81
2021/09/21 10:06:41;;;;;;;4.05;1.92;;;;;;;30.69;33.70;101523.25;144992;716;6002;-83
2021/09/21 10:09:08;;;;;;;6.28;5.07;;;;;;;30.79;34.15;101523.72;144992;576;6002;-81
2021/09/21 10:11:36;;;;;;;8.60;4.40;;;;;;;30.73;33.28;101522.19;144992;743;6002;-82
2021/09/21 10:14:04;;;;;;;4.43;2.80;;;;;;;30.79;34.49;101529.09;144992;608;6002;-81
2021/09/21 10:16:37;;;;;;;7.57;3.22;;;;;;;30.84;34.80;101523.53;144992;569;6002;-82
2021/09/21 10:19:21;;;;;;;6.12;3.58;;;;;;;30.88;34.05;101523.34;144992;594;6002;-82
2021/09/21 10:21:50;;;;;;;10.85;6.00;;;;;;;30.98;33.85;101523.84;144992;675;6002;-82
2021/09/21 10:24:17;;;;;;;5.85;4.35;;;;;;;30.97;34.18;101521.22;144992;674;6002;-82
2021/09/21 10:26:48;;;;;;;4.62;2.95;;;;;;;31.06;33.82;101527.06;144992;589;6002;-79
2021/09/21 10:29:15;;;;;;;5.97;3.53;;;;;;;31.10;33.38;101515.28;144992;701;6002;-81
2021/09/21 10:31:41;;;;;;;7.70;3.50;;;;;;;31.18;33.58;101519.41;144992;579;6002;-81
2021/09/21 10:34:16;;;;;;;9.93;4.90;;;;;;;31.38;33.92;101507.78;144992;714;6002;-81
2021/09/21 10:36:53;;;;;;;6.68;4.35;;;;;;;31.58;33.54;101505.09;144992;624;6002;-81
2021/09/21 10:39:22;;;;;;;3.40;2.17;;;;;;;31.73;33.62;101508.88;144992;578;6002;-81
2021/09/21 10:41:56;;;;;;;5.03;2.45;;;;;;;31.82;31.38;101505.75;144992;656;6002;-82
2021/09/21 10:44:23;;;;;;;7.65;3.33;;;;;;;31.96;32.55;101510.50;144992;704;6002;-80
2021/09/21 10:47:03;;;;;;;7.62;2.92;;;;;;;32.09;32.31;101509.94;144992;678;6002;-82
2021/09/21 10:49:41;;;;;;;4.80;2.37;;;;;;;32.09;31.98;101502.75;144992;687;6002;-82
2021/09/21 10:52:13;;;;;;;7.45;4.22;;;;;;;32.23;30.84;101503.88;144992;589;6002;-81
2021/09/21 10:54:53;;;;;;;6.10;2.90;;;;;;;32.36;31.51;101505.88;144992;592;6002;-82
2021/09/21 10:57:40;;;;;;;4.18;2.42;;;;;;;32.45;31.38;101496.47;144992;565;6002;-82
2021/09/21 11:00:10;;;;;;;7.18;4.60;;;;;;;32.58;32.94;101496.75;144992;606;6002;-81
2021/09/21 11:02:48;;;;;;;5.30;2.83;;;;;;;32.61;31.71;101490.34;144992;644;6002;-78
2021/09/21 11:05:17;;;;;;;7.82;4.47;;;;;;;32.62;32.82;101492.09;144992;600;6002;-78
2021/09/21 11:07:57;;;;;;;5.15;2.42;;;;;;;32.65;31.39;101491.97;144992;606;6002;-77
2021/09/21 11:10:34;;;;;;;5.53;2.50;;;;;;;32.63;31.87;101483.06;144992;586;6002;-76
2021/09/21 11:13:01;;;;;;;4.90;1.80;;;;;;;32.69;31.25;101472.03;144992;621;6002;-77
2021/09/21 11:15:29;;;;;;;3.30;1.92;;;;;;;32.63;29.58;101461.56;144992;659;6002;-79
2021/09/21 11:18:13;;;;;;;3.30;1.70;;;;;;;32.61;32.14;101461.66;144992;581;6002;-79
2021/09/21 11:21:08;;;;;;;3.75;2.40;;;;;;;32.63;29.86;101453.50;144992;565;6002;-79
2021/09/21 11:23:38;;;;;;;4.90;2.33;;;;;;;32.62;30.34;101454.47;144992;614;6004;-82
2021/09/21 11:26:08;;;;;;;3.45;1.40;;;;;;;32.67;31.87;101455.97;144992;588;6004;-81
2021/09/21 11:28:38;;;;;;;2.85;1.77;;;;;;;32.74;31.81;101451.19;144992;656;6004;-79
2021/09/21 11:31:06;;;;;;;2.60;1.80;;;;;;;32.80;31.57;101453.53;144992;567;6004;-77
2021/09/21 11:33:35;;;;;;;2.78;1.52;;;;;;;32.51;30.97;101447.81;144992;598;6004;-78
2021/09/21 11:36:14;;;;;;;2.67;1.60;;;;;;;32.64;31.56;101444.53;144992;567;6004;-76
2021/09/21 11:38:44;;;;;;;4.32;1.80;;;;;;;32.56;31.95;101439.50;144992;670;6004;-79
2021/09/21 11:41:11;;;;;;;2.45;2.00;;;;;;;32.34;32.59;101442.41;144992;606;6004;-78
2021/09/21 11:43:39;;;;;;;5.18;2.47;;;;;;;32.22;33.02;101438.56;144991;626;6000;-79
2021/09/21 11:46:06;;;;;;;3.10;1.45;;;;;;;32.19;32.02;101433.31;144992;591;6002;-76
2021/09/21 11:48:32;;;;;;;4.72;2.05;;;;;;;32.03;33.03;101430.50;144992;677;6002;-81